Time;durP1;ratioP1;P1;durP2;ratioP2;P2;SDS_P1;SDS_P2;PMS_P1;PMS_P2;Temp;Humidity;BMP_temperature;BMP_pressure;BME280_temperature;BME280_humidity;BME280_pressure;Samples;Min_cycle;Max_cycle;Signal;HPM_P1;HPM_P2
2022/04/16 00:00:52;;;;;;;;;;;13.40;99.90;;;;;;4288153;33;44857;-83
2022/04/16 00:03:21;;;;;;;;;;;13.40;99.90;;;;;;4301274;33;43870;-83
2022/04/16 00:05:51;;;;;;;;;;;13.40;99.90;;;;;;4288530;33;43930;-83
2022/04/16 00:08:23;;;;;;;;;;;13.40;99.90;;;;;;4301654;33;46060;-83
2022/04/16 00:10:50;;;;;;;;;;;13.30;99.90;;;;;;4288211;33;43196;-83
2022/04/16 00:13:18;;;;;;;;;;;13.30;99.90;;;;;;4301529;33;43035;-83
2022/04/16 00:15:55;;;;;;;;;;;13.30;99.90;;;;;;4288100;33;45741;-84
2022/04/16 00:18:23;;;;;;;;;;;13.20;99.90;;;;;;4288189;33;42863;-83
2022/04/16 00:20:51;;;;;;;;;;;13.20;99.90;;;;;;4301477;33;44132;-82
2022/04/16 00:23:22;;;;;;;;;;;13.20;99.90;;;;;;4288187;33;42642;-82
2022/04/16 00:25:49;;;;;;;;;;;13.20;99.90;;;;;;4288562;33;43999;-83
2022/04/16 00:28:16;;;;;;;;;;;13.20;99.90;;;;;;4288407;33;46130;-82
2022/04/16 00:30:43;;;;;;;;;;;13.20;99.90;;;;;;4301222;33;44020;-83
2022/04/16 00:33:12;;;;;;;;;;;13.20;99.90;;;;;;4301295;33;43018;-82
2022/04/16 00:35:43;;;;;;;;;;;13.20;99.90;;;;;;4288505;33;44749;-83
2022/04/16 00:38:11;;;;;;;;;;;13.20;99.90;;;;;;4301265;33;43533;-83
2022/04/16 00:40:39;;;;;;;;;;;13.20;99.90;;;;;;4288504;33;44254;-83
2022/04/16 00:43:06;;;;;;;;;;;13.10;99.90;;;;;;4287961;33;43283;-83
2022/04/16 00:45:34;;;;;;;;;;;13.10;99.90;;;;;;4288473;33;44670;-83
2022/04/16 00:48:01;;;;;;;;;;;13.10;99.90;;;;;;4301005;33;43284;-83
2022/04/16 00:50:28;;;;;;;;;;;13.10;99.90;;;;;;4300917;33;44269;-82
2022/04/16 00:52:55;;;;;;;;;;;13.10;99.90;;;;;;4288230;33;43604;-83
2022/04/16 00:55:22;;;;;;;;;;;13.00;99.90;;;;;;4301329;33;43008;-82
2022/04/16 00:57:49;;;;;;;;;;;13.00;99.90;;;;;;4300871;33;44060;-82
2022/04/16 01:00:16;;;;;;;;;;;13.10;99.90;;;;;;4301060;33;43182;-82
2022/04/16 01:02:45;;;;;;;;;;;13.00;99.90;;;;;;4288123;33;45070;-83
2022/04/16 01:05:12;;;;;;;;;;;13.00;99.90;;;;;;4301147;33;43900;-82
2022/04/16 01:07:58;;;;;;;;;;;13.00;99.90;;;;;;4301009;33;43952;-82
2022/04/16 01:10:26;;;;;;;;;;;13.00;99.90;;;;;;4288279;33;43158;-83
2022/04/16 01:12:54;;;;;;;;;;;12.90;99.90;;;;;;4300902;33;42357;-82
2022/04/16 01:15:21;;;;;;;;;;;12.90;99.90;;;;;;4301110;33;45584;-82
2022/04/16 01:17:48;;;;;;;;;;;12.90;99.90;;;;;;4300999;33;34789;-82
2022/04/16 01:20:16;;;;;;;;;;;12.90;99.90;;;;;;4288162;33;43284;-82
2022/04/16 01:22:45;;;;;;;;;;;12.90;99.90;;;;;;4300785;33;44285;-82
2022/04/16 01:25:12;;;;;;;;;;;12.90;99.90;;;;;;4300858;33;42941;-82
2022/04/16 01:27:43;;;;;;;;;;;12.80;99.90;;;;;;4300863;33;44220;-81
2022/04/16 01:30:13;;;;;;;;;;;12.80;99.90;;;;;;4303582;33;43009;-82
2022/04/16 01:32:40;;;;;;;;;;;12.80;99.90;;;;;;4303252;33;43761;-82
2022/04/16 01:35:08;;;;;;;;;;;12.80;99.90;;;;;;4303281;33;44242;-82
2022/04/16 01:37:35;;;;;;;;;;;12.80;99.90;;;;;;4303719;33;43793;-81
2022/04/16 01:40:04;;;;;;;;;;;12.80;99.90;;;;;;4303207;33;43282;-82
2022/04/16 01:42:32;;;;;;;;;;;12.70;99.90;;;;;;4290097;33;43048;-81
2022/04/16 01:45:00;;;;;;;;;;;12.70;99.90;;;;;;4290640;33;44105;-81
2022/04/16 01:47:27;;;;;;;;;;;12.80;99.90;;;;;;4290567;33;43543;-82
2022/04/16 01:49:56;;;;;;;;;;;12.80;99.90;;;;;;4303618;33;44818;-81
2022/04/16 01:52:23;;;;;;;;;;;12.70;99.90;;;;;;4303227;33;43004;-81
2022/04/16 01:54:50;;;;;;;;;;;12.60;99.90;;;;;;4290186;33;43487;-81
2022/04/16 01:57:18;;;;;;;;;;;12.60;99.90;;;;;;4303488;33;43870;-81
2022/04/16 01:59:46;;;;;;;;;;;12.60;99.90;;;;;;4290429;33;43227;-82
2022/04/16 02:02:14;;;;;;;;;;;12.60;99.90;;;;;;4302884;33;43000;-81
2022/04/16 02:04:41;;;;;;;;;;;12.60;99.90;;;;;;4290016;33;42731;-81
2022/04/16 02:07:08;;;;;;;;;;;12.60;99.90;;;;;;4303055;33;43092;-81
2022/04/16 02:09:35;;;;;;;;;;;12.60;99.90;;;;;;4290071;33;42617;-81
2022/04/16 02:12:02;;;;;;;;;;;12.60;99.90;;;;;;4289694;33;44655;-81
2022/04/16 02:14:30;;;;;;;;;;;12.50;99.90;;;;;;4289673;33;42752;-82
2022/04/16 02:16:58;;;;;;;;;;;12.50;99.90;;;;;;4302804;33;43166;-82
2022/04/16 02:19:26;;;;;;;;;;;12.50;99.90;;;;;;4302597;33;43847;-81
2022/04/16 02:21:53;;;;;;;;;;;12.50;99.90;;;;;;4302720;33;44225;-81
2022/04/16 02:24:20;;;;;;;;;;;12.50;99.90;;;;;;4302743;33;43187;-82
2022/04/16 02:26:47;;;;;;;;;;;12.50;99.90;;;;;;4289986;33;46027;-80
2022/04/16 02:29:14;;;;;;;;;;;12.50;99.90;;;;;;4289491;33;43490;-81
2022/04/16 02:31:41;;;;;;;;;;;12.50;99.90;;;;;;4289702;33;43492;-81
2022/04/16 02:34:11;;;;;;;;;;;12.50;99.90;;;;;;4289799;33;43556;-81
2022/04/16 02:36:40;;;;;;;;;;;12.50;99.90;;;;;;4289503;33;42929;-80
2022/04/16 02:39:08;;;;;;;;;;;12.50;99.90;;;;;;4302350;33;44271;-81
2022/04/16 02:41:35;;;;;;;;;;;12.40;99.90;;;;;;4289697;33;45485;-81
2022/04/16 02:44:02;;;;;;;;;;;12.40;99.90;;;;;;4289838;33;44094;-81
2022/04/16 02:49:18;;;;;;;;;;;12.30;99.90;;;;;;4302748;33;44048;-80
2022/04/16 02:51:45;;;;;;;;;;;12.30;99.90;;;;;;4302728;33;43773;-81
2022/04/16 02:54:12;;;;;;;;;;;12.30;99.90;;;;;;4302054;33;43309;-80
2022/04/16 02:56:39;;;;;;;;;;;12.30;99.90;;;;;;4302157;33;44222;-81
2022/04/16 02:59:06;;;;;;;;;;;12.30;99.90;;;;;;4289269;33;44678;-81
2022/04/16 03:01:33;;;;;;;;;;;12.30;99.90;;;;;;4289088;33;43925;-81
2022/04/16 03:04:00;;;;;;;;;;;12.20;99.90;;;;;;4302248;33;43034;-81
2022/04/16 03:06:27;;;;;;;;;;;12.20;99.90;;;;;;4289466;33;45425;-81
2022/04/16 03:08:54;;;;;;;;;;;12.20;99.90;;;;;;4301930;33;42704;-81
2022/04/16 03:11:21;;;;;;;;;;;12.20;99.90;;;;;;4302030;33;43329;-81
2022/04/16 03:13:48;;;;;;;;;;;12.20;99.90;;;;;;4289111;33;44477;-80
2022/04/16 03:19:01;;;;;;;;;;;12.20;99.90;;;;;;4302667;33;19998;-81
2022/04/16 03:21:28;;;;;;;;;;;12.20;99.90;;;;;;4302156;33;46095;-81
2022/04/16 03:23:55;;;;;;;;;;;12.20;99.90;;;;;;4301794;33;42975;-81
2022/04/16 03:26:22;;;;;;;;;;;12.20;99.90;;;;;;4289186;33;43901;-81
2022/04/16 03:28:50;;;;;;;;;;;12.10;99.90;;;;;;4289165;33;43237;-81
2022/04/16 03:31:17;;;;;;;;;;;12.10;99.90;;;;;;4302163;33;43929;-81
2022/04/16 03:33:44;;;;;;;;;;;12.10;99.90;;;;;;4301905;33;43877;-82
2022/04/16 03:36:11;;;;;;;;;;;12.10;99.90;;;;;;4288784;33;44176;-82
2022/04/16 03:38:38;;;;;;;;;;;12.10;99.90;;;;;;4288608;33;43653;-82
2022/04/16 03:41:06;;;;;;;;;;;12.10;99.90;;;;;;4301719;33;44258;-81
2022/04/16 03:43:33;;;;;;;;;;;12.00;99.90;;;;;;4288539;33;43044;-81
2022/04/16 03:46:00;;;;;;;;;;;12.00;99.90;;;;;;4301828;33;44045;-81
2022/04/16 03:48:27;;;;;;;;;;;12.00;99.90;;;;;;4301483;33;42740;-82
2022/04/16 03:50:54;;;;;;;;;;;12.00;99.90;;;;;;4288095;33;42690;-82
2022/04/16 03:53:21;;;;;;;;;;;12.00;99.90;;;;;;4288244;33;44162;-81
2022/04/16 04:01:19;;;;;;;;;;;11.90;99.90;;;;;;4301173;33;43157;-82
2022/04/16 04:03:47;;;;;;;;;;;11.90;99.90;;;;;;4301834;33;43219;-81
2022/04/16 04:06:14;;;;;;;;;;;11.90;99.90;;;;;;4301402;33;42800;-82
2022/04/16 04:08:41;;;;;;;;;;;11.90;99.90;;;;;;4288143;33;43547;-82
2022/04/16 04:11:08;;;;;;;;;;;11.90;99.90;;;;;;4288186;33;44103;-81
2022/04/16 04:13:36;;;;;;;;;;;11.80;99.90;;;;;;4301650;33;42949;-82
2022/04/16 04:16:03;;;;;;;;;;;11.90;99.90;;;;;;4301767;33;43950;-82
2022/04/16 04:18:30;;;;;;;;;;;11.90;99.90;;;;;;4301260;33;43175;-82
2022/04/16 04:20:57;;;;;;;;;;;11.90;99.90;;;;;;4301102;33;44237;-83
2022/04/16 04:23:24;;;;;;;;;;;11.80;99.90;;;;;;4301626;33;43925;-82
2022/04/16 04:25:52;;;;;;;;;;;11.80;99.90;;;;;;4288167;33;43378;-81
2022/04/16 04:28:19;;;;;;;;;;;11.80;99.90;;;;;;4301263;33;43224;-82
2022/04/16 04:30:46;;;;;;;;;;;11.80;99.90;;;;;;4288480;33;42582;-82
2022/04/16 04:33:13;;;;;;;;;;;11.70;99.90;;;;;;4301534;33;43478;-81
2022/04/16 04:35:40;;;;;;;;;;;11.70;99.90;;;;;;4288494;33;43538;-82
2022/04/16 04:38:07;;;;;;;;;;;11.70;99.90;;;;;;4288347;33;44195;-82
2022/04/16 04:40:34;;;;;;;;;;;11.70;99.90;;;;;;4288175;33;43826;-82
2022/04/16 04:43:01;;;;;;;;;;;11.70;99.90;;;;;;4301331;33;43287;-83
2022/04/16 04:45:28;;;;;;;;;;;11.70;99.90;;;;;;4287981;33;44017;-83
2022/04/16 04:47:55;;;;;;;;;;;11.70;99.90;;;;;;4288464;33;43302;-82
2022/04/16 04:50:22;;;;;;;;;;;11.70;99.90;;;;;;4288262;33;44192;-82
2022/04/16 04:52:49;;;;;;;;;;;11.70;99.90;;;;;;4301278;33;44443;-82
2022/04/16 04:55:16;;;;;;;;;;;11.70;99.90;;;;;;4301181;33;44325;-82
2022/04/16 04:57:43;;;;;;;;;;;11.70;99.90;;;;;;4288000;33;43577;-81
2022/04/16 05:00:11;;;;;;;;;;;11.70;99.90;;;;;;4300920;33;42700;-82
2022/04/16 05:02:42;;;;;;;;;;;11.70;99.90;;;;;;4300621;33;43241;-82
2022/04/16 05:05:09;;;;;;;;;;;11.70;99.90;;;;;;4303906;33;43582;-82
2022/04/16 05:07:36;;;;;;;;;;;11.70;99.90;;;;;;4290585;33;43397;-82
2022/04/16 05:10:04;;;;;;;;;;;11.60;99.90;;;;;;4290914;33;43884;-83
2022/04/16 05:12:31;;;;;;;;;;;11.60;99.90;;;;;;4290761;33;43191;-82
2022/04/16 05:14:58;;;;;;;;;;;11.60;99.90;;;;;;4303960;33;43604;-82
2022/04/16 05:17:25;;;;;;;;;;;11.60;99.90;;;;;;4303683;33;45862;-81
2022/04/16 05:19:53;;;;;;;;;;;11.50;99.90;;;;;;4303523;33;43320;-82
2022/04/16 05:22:20;;;;;;;;;;;11.50;99.90;;;;;;4303871;33;44211;-82
2022/04/16 05:24:47;;;;;;;;;;;11.60;99.90;;;;;;4290831;33;43204;-81
2022/04/16 05:27:15;;;;;;;;;;;11.50;99.90;;;;;;4304021;33;44015;-82
2022/04/16 05:29:56;;;;;;;;;;;11.40;99.90;;;;;;4290486;33;44194;-81
2022/04/16 05:32:31;;;;;;;;;;;11.40;99.90;;;;;;4303812;33;44242;-82
2022/04/16 05:34:58;;;;;;;;;;;11.50;99.90;;;;;;4303636;33;45706;-83
2022/04/16 05:37:25;;;;;;;;;;;11.50;99.90;;;;;;4303537;33;43745;-82
2022/04/16 05:39:52;;;;;;;;;;;11.50;99.90;;;;;;4290231;33;44098;-82
2022/04/16 05:42:19;;;;;;;;;;;11.40;99.90;;;;;;4303181;33;43661;-82
2022/04/16 05:44:46;;;;;;;;;;;11.40;99.90;;;;;;4303195;33;42968;-81
2022/04/16 05:47:14;;;;;;;;;;;11.40;99.90;;;;;;4290483;33;43478;-82
2022/04/16 05:49:41;;;;;;;;;;;11.40;99.90;;;;;;4290022;33;43486;-82
2022/04/16 05:52:08;;;;;;;;;;;11.30;99.90;;;;;;4303271;33;43298;-82
2022/04/16 05:54:35;;;;;;;;;;;11.30;99.90;;;;;;4303212;33;42799;-82
2022/04/16 05:57:02;;;;;;;;;;;11.40;99.90;;;;;;4290366;33;44343;-82
2022/04/16 05:59:29;;;;;;;;;;;11.40;99.90;;;;;;4290592;33;45445;-82
2022/04/16 06:01:57;;;;;;;;;;;11.30;99.90;;;;;;4289853;33;43093;-82
2022/04/16 06:04:24;;;;;;;;;;;11.40;99.90;;;;;;4303249;33;44157;-82
2022/04/16 06:06:51;;;;;;;;;;;11.30;99.90;;;;;;4302867;33;44256;-82
2022/04/16 06:09:18;;;;;;;;;;;11.40;99.90;;;;;;4303080;33;44119;-82
2022/04/16 06:11:48;;;;;;;;;;;11.40;99.90;;;;;;4303240;33;43466;-82
2022/04/16 06:14:15;;;;;;;;;;;11.40;99.90;;;;;;4302984;33;44239;-82
2022/04/16 06:16:42;;;;;;;;;;;11.30;99.90;;;;;;4303216;33;43462;-82
2022/04/16 06:19:09;;;;;;;;;;;11.40;99.90;;;;;;4303114;33;44377;-82
2022/04/16 06:21:36;;;;;;;;;;;11.40;99.90;;;;;;4289824;33;42816;-82
2022/04/16 06:24:03;;;;;;;;;;;11.40;99.90;;;;;;4302837;33;44768;-83
2022/04/16 06:26:30;;;;;;;;;;;11.40;99.90;;;;;;4303038;33;44181;-82
2022/04/16 06:28:57;;;;;;;;;;;11.40;99.90;;;;;;4302560;33;44063;-81
2022/04/16 06:31:24;;;;;;;;;;;11.40;99.90;;;;;;4290021;33;44475;-82
2022/04/16 06:33:51;;;;;;;;;;;11.40;99.90;;;;;;4289437;33;43937;-82
2022/04/16 06:36:18;;;;;;;;;;;11.40;99.90;;;;;;4302394;33;44513;-81
2022/04/16 06:38:45;;;;;;;;;;;11.40;99.90;;;;;;4289653;33;43544;-82
2022/04/16 06:41:12;;;;;;;;;;;11.40;99.90;;;;;;4302374;33;43853;-81
2022/04/16 06:43:39;;;;;;;;;;;11.40;99.90;;;;;;4302707;33;43421;-81
2022/04/16 06:46:06;;;;;;;;;;;11.50;99.90;;;;;;4302321;33;43607;-84
2022/04/16 06:48:33;;;;;;;;;;;11.50;99.90;;;;;;4302344;33;43220;-81
2022/04/16 06:51:00;;;;;;;;;;;11.50;99.90;;;;;;4289878;33;22565;-81
2022/04/16 06:53:27;;;;;;;;;;;11.50;99.90;;;;;;4302162;33;44256;-81
2022/04/16 06:55:54;;;;;;;;;;;11.50;99.90;;;;;;4302401;33;43796;-81
2022/04/16 06:58:21;;;;;;;;;;;11.50;99.90;;;;;;4302002;33;45696;-81
2022/04/16 07:00:48;;;;;;;;;;;11.60;99.90;;;;;;4302515;33;43455;-81
2022/04/16 07:03:16;;;;;;;;;;;11.60;99.90;;;;;;4288954;33;44125;-81
2022/04/16 07:05:43;;;;;;;;;;;11.60;99.90;;;;;;4289467;33;43259;-81
2022/04/16 07:08:10;;;;;;;;;;;11.60;99.90;;;;;;4301978;33;43521;-81
2022/04/16 07:10:37;;;;;;;;;;;11.60;99.90;;;;;;4289104;33;43923;-81
2022/04/16 07:13:04;;;;;;;;;;;11.70;99.90;;;;;;4302374;33;42976;-80
2022/04/16 07:15:33;;;;;;;;;;;11.60;99.90;;;;;;4302275;33;43994;-81
2022/04/16 07:18:00;;;;;;;;;;;11.70;99.90;;;;;;4289398;33;44535;-81
2022/04/16 07:20:28;;;;;;;;;;;11.70;99.90;;;;;;4301843;33;42750;-81
2022/04/16 07:23:01;;;;;;;;;;;11.70;99.90;;;;;;4302233;33;43053;-81
2022/04/16 07:25:28;;;;;;;;;;;11.80;99.90;;;;;;4301902;33;43136;-81
2022/04/16 07:27:55;;;;;;;;;;;11.80;99.90;;;;;;4301830;33;42715;-81
2022/04/16 07:30:22;;;;;;;;;;;11.80;99.90;;;;;;4288746;33;43643;-81
2022/04/16 07:32:49;;;;;;;;;;;11.90;99.90;;;;;;4302149;33;43546;-81
2022/04/16 07:35:16;;;;;;;;;;;11.90;99.90;;;;;;4301774;33;42987;-83
2022/04/16 07:37:43;;;;;;;;;;;11.90;99.90;;;;;;4301587;33;44599;-81
2022/04/16 07:40:11;;;;;;;;;;;11.90;99.90;;;;;;4301528;33;43922;-81
2022/04/16 07:42:38;;;;;;;;;;;11.90;99.90;;;;;;4288484;33;43302;-82
2022/04/16 07:45:05;;;;;;;;;;;11.90;99.90;;;;;;4301860;33;44014;-81
2022/04/16 07:47:32;;;;;;;;;;;12.00;99.90;;;;;;4301439;33;42545;-81
2022/04/16 07:49:59;;;;;;;;;;;12.00;99.90;;;;;;4288943;33;43086;-81
2022/04/16 07:52:28;;;;;;;;;;;12.00;99.90;;;;;;4301729;33;44049;-81
2022/04/16 07:54:55;;;;;;;;;;;12.00;99.90;;;;;;4301843;33;43271;-81
2022/04/16 07:57:22;;;;;;;;;;;12.10;99.90;;;;;;4301788;33;42679;-81
2022/04/16 07:59:49;;;;;;;;;;;12.00;99.90;;;;;;4301912;33;44124;-81
2022/04/16 08:02:16;;;;;;;;;;;12.10;99.90;;;;;;4301283;33;43853;-81
2022/04/16 08:04:43;;;;;;;;;;;12.10;99.90;;;;;;4301770;33;44201;-80
2022/04/16 08:07:10;;;;;;;;;;;12.10;99.90;;;;;;4301695;33;42886;-80
2022/04/16 08:09:37;;;;;;;;;;;12.10;99.90;;;;;;4288702;33;44215;-80
2022/04/16 08:12:04;;;;;;;;;;;12.10;99.90;;;;;;4288609;33;44187;-81
2022/04/16 08:14:31;;;;;;;;;;;12.20;99.90;;;;;;4301181;33;44084;-80
2022/04/16 08:16:58;;;;;;;;;;;12.20;99.90;;;;;;4301297;33;43785;-80
2022/04/16 08:19:25;;;;;;;;;;;12.10;99.90;;;;;;4288570;33;43814;-81
2022/04/16 08:21:53;;;;;;;;;;;12.20;99.90;;;;;;4301662;33;43246;-81
2022/04/16 08:24:39;;;;;;;;;;;12.20;99.90;;;;;;4301133;33;44212;-81
2022/04/16 08:27:07;;;;;;;;;;;12.20;99.90;;;;;;4301629;33;43233;-80
2022/04/16 08:29:34;;;;;;;;;;;12.20;99.90;;;;;;4301040;33;44218;-80
2022/04/16 08:32:01;;;;;;;;;;;12.20;99.90;;;;;;4301101;33;43883;-80
2022/04/16 08:34:48;;;;;;;;;;;12.20;99.90;;;;;;4301271;33;42938;-81
2022/04/16 08:37:15;;;;;;;;;;;12.20;99.90;;;;;;4288288;33;43392;-80
2022/04/16 08:39:42;;;;;;;;;;;12.20;99.90;;;;;;4288413;33;43784;-81
2022/04/16 08:42:09;;;;;;;;;;;12.30;99.90;;;;;;4301077;33;43207;-80
2022/04/16 08:44:38;;;;;;;;;;;12.30;99.90;;;;;;4301318;33;43279;-81
2022/04/16 08:47:05;;;;;;;;;;;12.30;99.90;;;;;;4288288;33;42911;-81
2022/04/16 08:49:33;;;;;;;;;;;12.30;99.90;;;;;;4288390;33;43486;-81
2022/04/16 08:52:02;;;;;;;;;;;12.30;99.90;;;;;;4287963;33;43259;-81
2022/04/16 08:54:30;;;;;;;;;;;12.30;99.90;;;;;;4288325;33;44203;-80
2022/04/16 08:56:57;;;;;;;;;;;12.30;99.90;;;;;;4300888;33;44248;-81
2022/04/16 08:59:24;;;;;;;;;;;12.40;99.90;;;;;;4287815;33;42708;-81
2022/04/16 09:01:51;;;;;;;;;;;12.30;99.90;;;;;;4300938;33;43949;-80
2022/04/16 09:04:22;;;;;;;;;;;12.40;99.90;;;;;;4287770;33;43875;-81
2022/04/16 09:06:57;;;;;;;;;;;12.40;99.90;;;;;;4287792;33;44770;-81
2022/04/16 09:09:25;;;;;;;;;;;12.40;99.90;;;;;;4288543;33;43303;-81
2022/04/16 09:11:52;;;;;;;;;;;12.40;99.90;;;;;;4300842;33;43125;-81
2022/04/16 09:14:19;;;;;;;;;;;12.40;99.90;;;;;;4301405;33;43944;-81
2022/04/16 09:16:46;;;;;;;;;;;12.40;99.90;;;;;;4300696;33;44041;-81
2022/04/16 09:19:16;;;;;;;;;;;12.40;99.90;;;;;;4300841;33;44905;-81
2022/04/16 09:21:43;;;;;;;;;;;12.50;99.90;;;;;;4287799;33;44059;-81
2022/04/16 09:24:14;;;;;;;;;;;12.50;99.90;;;;;;4301328;33;43318;-81
2022/04/16 09:26:41;;;;;;;;;;;12.50;99.90;;;;;;4287668;33;43251;-81
2022/04/16 09:29:09;;;;;;;;;;;12.50;99.90;;;;;;4287592;33;44183;-81
2022/04/16 09:31:40;;;;;;;;;;;12.50;99.90;;;;;;4301145;33;46010;-81
2022/04/16 09:34:14;;;;;;;;;;;12.50;99.90;;;;;;4301150;33;43259;-81
2022/04/16 09:36:44;;;;;;;;;;;12.50;99.90;;;;;;4300596;33;44061;-82
2022/04/16 09:39:11;;;;;;;;;;;12.50;99.90;;;;;;4301034;33;45085;-81
2022/04/16 09:41:39;;;;;;;;;;;12.60;99.90;;;;;;4287576;33;44272;-80
2022/04/16 09:44:20;;;;;;;;;;;12.60;99.90;;;;;;4287975;33;44776;-81
2022/04/16 09:46:52;;;;;;;;;;;12.60;99.90;;;;;;4288480;33;43509;-81
2022/04/16 09:49:20;;;;;;;;;;;12.50;99.90;;;;;;4288291;33;42584;-81
2022/04/16 09:51:48;;;;;;;;;;;12.60;99.90;;;;;;4303545;33;43975;-80
2022/04/16 09:54:15;;;;;;;;;;;12.60;99.90;;;;;;4289991;33;44113;-81
2022/04/16 09:56:46;;;;;;;;;;;12.60;99.90;;;;;;4290485;33;43593;-81
2022/04/16 09:59:15;;;;;;;;;;;12.60;99.90;;;;;;4303522;33;43959;-81
2022/04/16 10:01:47;;;;;;;;;;;12.60;99.90;;;;;;4302755;33;44896;-81
2022/04/16 10:04:15;;;;;;;;;;;12.70;99.90;;;;;;4303674;33;43180;-82
2022/04/16 10:06:42;;;;;;;;;;;12.60;99.90;;;;;;4289889;33;44742;-81
2022/04/16 10:09:17;;;;;;;;;;;12.70;99.90;;;;;;4303186;33;43618;-81
2022/04/16 10:14:42;;;;;;;;;;;12.70;99.90;;;;;;4303346;33;43536;-80
2022/04/16 10:17:12;;;;;;;;;;;12.70;99.90;;;;;;4290091;33;45522;-80
2022/04/16 10:19:40;;;;;;;;;;;12.70;99.90;;;;;;4303181;33;42876;-81
2022/04/16 10:22:07;;;;;;;;;;;12.80;99.90;;;;;;4302794;33;43484;-80
2022/04/16 10:24:34;;;;;;;;;;;12.70;99.90;;;;;;4302640;33;43001;-80
2022/04/16 10:27:04;;;;;;;;;;;12.70;99.90;;;;;;4303152;33;44871;-80
2022/04/16 10:29:36;;;;;;;;;;;12.70;99.90;;;;;;4302775;33;44016;-81
2022/04/16 10:32:13;;;;;;;;;;;12.70;99.90;;;;;;4303030;33;42257;-80
2022/04/16 10:34:40;;;;;;;;;;;12.80;99.90;;;;;;4290115;33;43232;-80
2022/04/16 10:37:08;;;;;;;;;;;12.80;99.90;;;;;;4289464;33;43364;-80
2022/04/16 10:39:35;;;;;;;;;;;12.80;99.90;;;;;;4302467;33;43886;-80
2022/04/16 10:42:04;;;;;;;;;;;12.80;99.90;;;;;;4289903;33;43890;-80
2022/04/16 10:44:45;;;;;;;;;;;12.80;99.90;;;;;;4302346;33;43502;-80
2022/04/16 10:47:13;;;;;;;;;;;12.80;99.90;;;;;;4289599;33;43882;-80
2022/04/16 10:49:41;;;;;;;;;;;12.90;99.90;;;;;;4289187;33;45645;-80
2022/04/16 10:52:18;;;;;;;;;;;12.90;99.90;;;;;;4302266;33;44199;-80
2022/04/16 10:54:47;;;;;;;;;;;12.90;99.90;;;;;;4289277;33;45067;-81
2022/04/16 10:57:21;;;;;;;;;;;12.90;99.90;;;;;;4289653;33;44232;-80
2022/04/16 10:59:48;;;;;;;;;;;12.90;99.90;;;;;;4302277;33;43199;-80
2022/04/16 11:02:22;;;;;;;;;;;12.90;99.90;;;;;;4301096;33;42570;-79
2022/04/16 11:04:56;;;;;;;;;;;12.90;99.90;;;;;;4302107;33;43781;-80
2022/04/16 11:07:23;;;;;;;;;;;12.90;99.90;;;;;;4289610;33;43533;-80
2022/04/16 11:09:51;;;;;;;;;;;13.00;99.90;;;;;;4289238;33;43238;-80
2022/04/16 11:12:19;;;;;;;;;;;13.00;99.90;;;;;;4301961;33;42777;-80
2022/04/16 11:14:50;;;;;;;;;;;13.00;99.90;;;;;;4302131;33;42816;-80
2022/04/16 11:17:17;;;;;;;;;;;13.00;99.90;;;;;;4302384;33;43359;-80
2022/04/16 11:19:45;;;;;;;;;;;13.00;99.90;;;;;;4289311;33;43877;-79
2022/04/16 11:22:12;;;;;;;;;;;13.00;99.90;;;;;;4289046;33;43348;-81
2022/04/16 11:24:39;;;;;;;;;;;13.10;99.90;;;;;;4302521;33;20843;-81
2022/04/16 11:35:24;;;;;;;;;;;13.10;99.90;;;;;;4302196;33;43185;-81
2022/04/16 11:37:54;;;;;;;;;;;13.10;99.90;;;;;;4288806;33;43838;-81
2022/04/16 11:40:21;;;;;;;;;;;13.20;99.90;;;;;;4288790;33;43401;-81
2022/04/16 11:42:48;;;;;;;;;;;13.20;99.90;;;;;;4289055;33;43355;-80
2022/04/16 11:45:15;;;;;;;;;;;13.20;99.90;;;;;;4301513;33;44336;-81
2022/04/16 11:47:43;;;;;;;;;;;13.20;99.90;;;;;;4288583;33;42853;-81
2022/04/16 11:50:10;;;;;;;;;;;13.30;99.90;;;;;;4288694;33;42771;-81
2022/04/16 11:52:39;;;;;;;;;;;13.30;99.90;;;;;;4288712;33;44259;-80
2022/04/16 11:55:06;;;;;;;;;;;13.30;99.90;;;;;;4302635;33;19999;-80
2022/04/16 11:57:33;;;;;;;;;;;13.30;99.90;;;;;;4288872;33;44244;-80
2022/04/16 12:00:05;;;;;;;;;;;13.30;99.90;;;;;;4288800;33;43188;-80
2022/04/16 12:02:36;;;;;;;;;;;13.40;99.90;;;;;;4288560;33;44161;-81
2022/04/16 12:05:07;;;;;;;;;;;13.40;99.90;;;;;;4288440;33;42608;-79
2022/04/16 12:07:34;;;;;;;;;;;13.40;99.90;;;;;;4288585;33;42768;-79
2022/04/16 12:10:02;;;;;;;;;;;13.40;99.90;;;;;;4288671;33;43278;-79
2022/04/16 12:12:29;;;;;;;;;;;13.40;99.90;;;;;;4288047;33;43105;-80
2022/04/16 12:14:58;;;;;;;;;;;13.50;99.90;;;;;;4301304;33;43364;-79
2022/04/16 12:17:26;;;;;;;;;;;13.50;99.90;;;;;;4288228;33;44027;-80
2022/04/16 12:19:57;;;;;;;;;;;13.50;99.90;;;;;;4301745;33;43859;-80
2022/04/16 12:22:24;;;;;;;;;;;13.60;99.90;;;;;;4288231;33;43116;-80
2022/04/16 12:24:52;;;;;;;;;;;13.60;99.90;;;;;;4301153;33;43742;-80
2022/04/16 12:27:25;;;;;;;;;;;13.60;99.90;;;;;;4289056;33;20030;-80
2022/04/16 12:29:54;;;;;;;;;;;13.60;99.90;;;;;;4301646;33;44211;-80
2022/04/16 12:32:26;;;;;;;;;;;13.70;99.90;;;;;;4288266;33;44228;-80
2022/04/16 12:34:53;;;;;;;;;;;13.70;99.90;;;;;;4301660;33;44173;-80
2022/04/16 12:37:21;;;;;;;;;;;13.70;99.90;;;;;;4288344;33;43194;-80
2022/04/16 12:39:49;;;;;;;;;;;13.70;99.90;;;;;;4301439;33;43462;-80
2022/04/16 12:42:16;;;;;;;;;;;13.80;99.90;;;;;;4288567;33;43569;-81
2022/04/16 12:44:43;;;;;;;;;;;13.80;99.90;;;;;;4301013;33;43879;-81
2022/04/16 12:47:10;;;;;;;;;;;13.80;99.90;;;;;;4288288;33;44300;-80
2022/04/16 12:49:37;;;;;;;;;;;13.80;99.90;;;;;;4301400;33;43175;-80
2022/04/16 12:52:04;;;;;;;;;;;13.90;99.90;;;;;;4301311;33;43185;-81
2022/04/16 12:54:31;;;;;;;;;;;13.90;99.90;;;;;;4300873;33;44211;-81
2022/04/16 12:56:58;;;;;;;;;;;13.90;99.90;;;;;;4300718;33;44294;-81
2022/04/16 12:59:25;;;;;;;;;;;13.90;99.90;;;;;;4288421;33;44221;-81
2022/04/16 13:01:53;;;;;;;;;;;14.00;99.90;;;;;;4300773;33;45309;-81
2022/04/16 13:04:20;;;;;;;;;;;14.00;99.90;;;;;;4301191;33;43268;-80
2022/04/16 13:06:47;;;;;;;;;;;14.00;99.90;;;;;;4301216;33;43890;-81
2022/04/16 13:09:14;;;;;;;;;;;14.00;99.90;;;;;;4301744;33;43269;-81
2022/04/16 13:11:41;;;;;;;;;;;14.00;99.90;;;;;;4301004;33;43195;-80
2022/04/16 13:14:08;;;;;;;;;;;14.10;99.90;;;;;;4288052;33;43892;-80
2022/04/16 13:16:35;;;;;;;;;;;14.10;99.90;;;;;;4288140;33;44231;-80
2022/04/16 13:19:03;;;;;;;;;;;14.10;99.90;;;;;;4300718;33;44109;-81
2022/04/16 13:21:30;;;;;;;;;;;14.20;99.90;;;;;;4300644;33;42270;-81
2022/04/16 13:23:57;;;;;;;;;;;14.20;99.90;;;;;;4300921;33;42334;-80
2022/04/16 13:26:24;;;;;;;;;;;14.20;99.90;;;;;;4303420;33;44051;-80
2022/04/16 13:28:51;;;;;;;;;;;14.20;99.90;;;;;;4303623;33;43556;-81
2022/04/16 13:31:18;;;;;;;;;;;14.30;99.90;;;;;;4303456;33;44081;-81
2022/04/16 13:33:45;;;;;;;;;;;14.30;99.90;;;;;;4290886;33;42859;-81
2022/04/16 13:36:12;;;;;;;;;;;14.30;99.90;;;;;;4290302;33;43482;-80
2022/04/16 13:38:39;;;;;;;;;;;14.40;99.90;;;;;;4290743;33;43588;-80
2022/04/16 13:43:52;;;;;;;;;;;14.50;99.90;;;;;;4303411;33;45037;-80
2022/04/16 13:46:19;;;;;;;;;;;14.50;99.90;;;;;;4303202;33;43849;-81
2022/04/16 13:48:46;;;;;;;;;;;14.50;99.90;;;;;;4290120;33;43024;-80
2022/04/16 13:51:13;;;;;;;;;;;14.50;99.90;;;;;;4303410;33;44083;-80
2022/04/16 13:53:40;;;;;;;;;;;14.50;99.90;;;;;;4303248;33;43393;-81
2022/04/16 13:56:07;;;;;;;;;;;14.60;99.90;;;;;;4303139;33;44134;-80
2022/04/16 13:58:34;;;;;;;;;;;14.60;99.90;;;;;;4303402;33;45959;-80
2022/04/16 14:01:02;;;;;;;;;;;14.70;99.90;;;;;;4303416;33;43512;-80
2022/04/16 14:03:29;;;;;;;;;;;14.70;99.90;;;;;;4287381;33;44049;-80
2022/04/16 14:05:57;;;;;;;;;;;14.70;99.90;;;;;;4288989;33;43781;-80
2022/04/16 14:08:26;;;;;;;;;;;14.70;99.90;;;;;;4288646;33;43424;-80
2022/04/16 14:10:56;;;;;;;;;;;14.80;99.90;;;;;;4288897;33;43523;-80
2022/04/16 14:13:24;;;;;;;;;;;14.80;99.90;;;;;;4288735;33;43826;-80
2022/04/16 14:15:55;;;;;;;;;;;14.80;99.90;;;;;;4289094;33;43916;-80
2022/04/16 14:18:22;;;;;;;;;;;14.80;99.90;;;;;;4288313;33;45792;-81
2022/04/16 14:20:49;;;;;;;;;;;14.90;99.90;;;;;;4275660;33;42874;-81
2022/04/16 14:23:16;;;;;;;;;;;14.90;99.90;;;;;;4288251;33;42672;-80
2022/04/16 14:25:43;;;;;;;;;;;14.90;99.90;;;;;;4288647;33;43209;-80
2022/04/16 14:28:10;;;;;;;;;;;14.90;99.60;;;;;;4288133;33;42783;-81
2022/04/16 14:30:37;;;;;;;;;;;15.00;99.90;;;;;;4275356;33;43189;-80
2022/04/16 14:33:05;;;;;;;;;;;15.00;99.90;;;;;;4288584;33;43919;-81
2022/04/16 14:35:33;;;;;;;;;;;15.00;99.60;;;;;;4287928;33;42951;-80
2022/04/16 14:38:00;;;;;;;;;;;15.10;99.60;;;;;;4288365;33;42519;-80
2022/04/16 14:40:27;;;;;;;;;;;15.10;99.90;;;;;;4288083;33;43024;-80
2022/04/16 14:42:54;;;;;;;;;;;15.10;99.50;;;;;;4288414;33;42274;-81
2022/04/16 14:45:21;;;;;;;;;;;15.10;99.50;;;;;;4288108;33;45598;-80